createdAt,value
2023-02-06T13:56:10.013Z,98394.16
2023-02-06T13:58:35.872Z,98383.00
2023-02-06T14:00:41.698Z,98376.94
2023-02-06T14:02:48.432Z,98373.25
2023-02-06T14:04:52.251Z,98377.88
2023-02-06T14:07:29.596Z,98373.69
2023-02-06T14:10:09.814Z,98382.59
2023-02-06T14:12:44.720Z,98381.28
2023-02-06T14:18:42.195Z,98382.59
2023-02-06T14:29:41.492Z,98396.97
2023-02-06T14:39:41.405Z,98386.88
2023-02-06T14:41:45.378Z,98393.88
2023-02-06T14:43:49.943Z,98395.53
2023-02-06T14:46:06.907Z,98401.34
2023-02-06T14:48:19.664Z,98393.03
2023-02-06T14:50:26.464Z,98389.47
2023-02-06T14:52:33.092Z,98383.78
2023-02-06T14:54:38.540Z,98395.88
2023-02-06T14:56:42.664Z,98393.50
2023-02-06T14:58:47.064Z,98395.28
2023-02-06T15:00:51.017Z,98396.72
2023-02-06T15:03:08.005Z,98392.56
2023-02-06T15:05:24.638Z,98392.31
2023-02-06T15:07:31.052Z,98396.72
2023-02-06T15:09:37.759Z,98404.41
2023-02-06T15:11:41.934Z,98405.75
2023-02-06T15:13:50.448Z,98407.38
2023-02-06T15:15:55.284Z,98409.06
2023-02-06T15:18:02.668Z,98409.16
2023-02-06T15:20:36.021Z,98402.97
2023-02-06T15:22:40.395Z,98406.78
2023-02-06T15:25:07.125Z,98403.47
2023-02-06T15:27:17.076Z,98398.34
2023-02-06T15:29:23.000Z,98401.34
2023-02-06T15:31:27.174Z,98396.38
2023-02-06T15:33:33.517Z,98399.06
2023-02-06T15:35:41.420Z,98400.03
2023-02-06T15:37:45.347Z,98389.72
2023-02-06T15:39:49.705Z,98395.88
2023-02-06T15:41:53.795Z,98392.53
2023-02-06T15:44:01.754Z,98385.78
2023-02-06T15:46:06.365Z,98383.66
2023-02-06T15:48:14.175Z,98384.97
2023-02-06T15:50:19.287Z,98392.88
2023-02-06T15:52:39.602Z,98402.88
2023-02-06T15:54:45.562Z,98408.47
2023-02-06T15:56:51.223Z,98404.91
2023-02-06T15:58:58.760Z,98403.25
2023-02-06T16:01:03.132Z,98397.53
2023-02-06T16:03:09.827Z,98399.00
2023-02-06T16:05:26.898Z,98406.81
2023-02-06T16:07:32.764Z,98403.25
2023-02-06T16:09:42.113Z,98413.31
2023-02-06T16:11:50.741Z,98413.44
2023-02-06T16:13:54.823Z,98408.91
2023-02-06T16:16:20.041Z,98414.66
2023-02-06T16:18:30.098Z,98414.28
2023-02-06T16:20:39.638Z,98411.66
2023-02-06T16:22:44.071Z,98411.06
2023-02-06T16:24:49.514Z,98413.09
2023-02-06T16:26:53.404Z,98408.53
2023-02-06T16:28:59.873Z,98419.00
2023-02-06T16:31:05.638Z,98420.78
2023-02-06T16:33:28.488Z,98424.47
2023-02-06T16:35:32.448Z,98428.88
2023-02-06T16:37:36.253Z,98434.81
2023-02-06T17:00:18.346Z,98453.66
2023-02-06T17:35:29.016Z,98478.25
2023-02-06T17:41:08.913Z,98477.28
2023-02-06T17:43:15.964Z,98476.56
2023-02-06T17:45:20.618Z,98479.41
2023-02-06T17:48:07.984Z,98470.63
2023-02-06T17:50:31.273Z,98469.75
2023-02-06T17:53:00.248Z,98476.34
2023-02-06T17:55:04.183Z,98475.53
2023-02-06T18:46:59.357Z,98413.69
2023-02-06T18:49:15.823Z,98414.47
2023-02-06T18:51:21.143Z,98409.44
2023-02-06T18:53:53.600Z,98408.25
2023-02-06T18:56:19.289Z,98405.22
2023-02-06T19:02:10.359Z,98394.97
2023-02-06T19:04:41.135Z,98407.63
2023-02-06T19:06:45.956Z,98400.63
2023-02-06T19:08:49.883Z,98402.56
2023-02-06T19:10:53.869Z,98394.66
2023-02-06T19:12:58.185Z,98395.78
2023-02-06T19:15:02.094Z,98398.91
2023-02-06T19:17:06.205Z,98390.56
2023-02-06T19:19:11.238Z,98387.66
2023-02-06T19:21:18.350Z,98387.56
2023-02-06T19:23:22.303Z,98384.78
2023-02-06T19:25:26.493Z,98385.94
2023-02-06T19:27:30.467Z,98382.59
2023-02-06T19:29:36.427Z,98370.94
2023-02-06T19:31:42.533Z,98376.06
2023-02-06T19:33:46.555Z,98366.81
2023-02-06T19:35:52.096Z,98369.28
2023-02-06T19:37:58.101Z,98364.31
2023-02-06T19:40:02.046Z,98371.34
2023-02-06T19:42:06.949Z,98370.13
2023-02-06T19:44:12.664Z,98372.84
2023-02-06T19:46:18.385Z,98368.84
2023-02-06T19:48:22.395Z,98366.59
2023-02-06T19:50:26.312Z,98361.97
2023-02-06T19:52:30.260Z,98366.22
2023-02-06T19:54:35.544Z,98370.63
2023-02-06T19:56:41.698Z,98370.75
2023-02-06T19:58:45.701Z,98368.25
2023-02-06T20:00:49.677Z,98366.00
2023-02-06T20:02:54.093Z,98369.81
2023-02-06T20:04:58.087Z,98372.16
2023-02-06T20:07:02.285Z,98359.66
2023-02-06T20:09:06.637Z,98366.81
2023-02-06T20:11:13.450Z,98369.53
2023-02-06T20:13:17.369Z,98369.16
2023-02-06T20:15:21.364Z,98366.34
2023-02-06T20:17:26.915Z,98362.91
2023-02-06T20:19:31.181Z,98366.94
2023-02-06T20:21:39.067Z,98368.97
2023-02-06T20:23:43.593Z,98361.81
2023-02-06T20:25:47.625Z,98351.13
2023-02-06T20:27:52.901Z,98358.28
2023-02-06T20:29:56.851Z,98355.78
2023-02-06T20:32:01.419Z,98356.84
2023-02-06T20:34:05.614Z,98351.03
2023-02-06T20:36:11.526Z,98359.72
2023-02-06T20:38:15.498Z,98358.88
2023-02-06T20:40:19.821Z,98346.09
2023-02-06T20:42:26.127Z,98339.91
2023-02-06T20:44:31.613Z,98346.66
2023-02-06T20:46:35.571Z,98340.34
2023-02-06T20:48:39.615Z,98330.97
2023-02-06T20:50:43.553Z,98331.13
2023-02-06T20:52:47.469Z,98314.59
2023-02-06T20:54:51.497Z,98322.50
2023-02-06T20:56:55.376Z,98324.28
2023-02-06T20:59:01.045Z,98326.59
2023-02-06T21:01:14.525Z,98323.81
2023-02-06T21:03:18.777Z,98320.28
2023-02-06T21:05:23.256Z,98300.91
2023-02-06T21:07:27.915Z,98309.88
2023-02-06T21:09:31.958Z,98301.47
2023-02-06T21:11:39.717Z,98294.72
2023-02-06T21:13:43.671Z,98298.47
2023-02-06T21:15:52.473Z,98288.25
2023-02-06T21:17:58.074Z,98282.59
2023-02-06T21:20:02.122Z,98306.94
2023-02-06T21:22:06.064Z,98308.63
2023-02-06T21:24:10.082Z,98310.41
2023-02-06T21:26:14.230Z,98303.28
2023-02-06T21:28:18.563Z,98301.00
2023-02-06T21:30:22.542Z,98299.94
2023-02-06T21:32:26.589Z,98299.94
2023-02-06T21:34:31.853Z,98292.22
2023-02-06T21:36:36.593Z,98283.72
2023-02-06T21:38:40.801Z,98279.78
2023-02-06T21:40:45.154Z,98276.97
2023-02-06T21:42:49.209Z,98277.94
2023-02-06T21:44:53.282Z,98281.28
2023-02-06T21:46:59.003Z,98276.03
2023-02-06T21:49:03.242Z,98259.03
2023-02-06T21:51:12.361Z,98246.84
2023-02-06T21:53:16.235Z,98244.75
2023-02-06T21:55:20.077Z,98276.19
2023-02-06T21:57:24.136Z,98289.09
2023-02-06T21:59:28.083Z,98260.91
2023-02-06T22:01:33.270Z,98253.59
2023-02-06T22:03:37.398Z,98254.19
2023-02-06T22:05:41.346Z,98249.94
2023-02-06T22:07:46.691Z,98243.75
2023-02-06T22:09:50.621Z,98248.75
2023-02-06T22:11:55.671Z,98239.47
2023-02-06T22:14:00.427Z,98241.97
2023-02-06T22:16:04.557Z,98229.34
2023-02-06T22:18:10.088Z,98229.81
2023-02-06T22:20:16.291Z,98227.03
2023-02-06T22:22:20.257Z,98233.25
2023-02-06T22:24:25.457Z,98219.91
2023-02-06T22:26:31.014Z,98211.03
2023-02-06T22:28:34.969Z,98203.19
2023-02-06T22:30:40.838Z,98207.56
2023-02-06T22:32:44.792Z,98197.25
2023-02-06T22:34:50.790Z,98204.00
2023-02-06T22:36:54.623Z,98199.72
2023-02-06T22:39:00.416Z,98201.53
2023-02-06T22:41:07.615Z,98202.50
2023-02-06T22:43:11.453Z,98191.66
2023-02-06T22:45:15.425Z,98180.13
2023-02-06T22:47:19.652Z,98192.34
2023-02-06T22:49:24.400Z,98194.38
2023-02-06T22:51:28.412Z,98177.91
2023-02-06T22:53:31.799Z,98171.97
2023-02-06T22:55:54.026Z,98184.91
2023-02-06T22:57:59.256Z,98188.34
2023-02-06T23:00:03.139Z,98192.34
2023-02-06T23:02:07.139Z,98206.50
2023-02-06T23:04:13.818Z,98213.38
2023-02-06T23:06:17.891Z,98208.03
2023-02-06T23:08:21.868Z,98219.28
2023-02-06T23:10:25.699Z,98227.25
2023-02-06T23:12:29.542Z,98215.41
2023-02-06T23:14:34.795Z,98214.47
2023-02-06T23:16:38.977Z,98206.84
2023-02-06T23:18:42.842Z,98207.44
2023-02-06T23:20:46.726Z,98210.06
2023-02-06T23:22:50.569Z,98194.97
2023-02-06T23:24:54.400Z,98195.22
2023-02-06T23:26:58.228Z,98196.41
2023-02-06T23:29:04.376Z,98192.03
2023-02-06T23:31:09.996Z,98181.75
2023-02-06T23:33:14.069Z,98171.59
2023-02-06T23:35:18.246Z,98175.28
2023-02-06T23:37:22.169Z,98175.00
2023-02-06T23:39:26.027Z,98176.53
2023-02-06T23:41:30.288Z,98171.78
2023-02-06T23:43:34.172Z,98172.69
2023-02-06T23:45:38.343Z,98175.47
2023-02-06T23:47:43.739Z,98184.63
2023-02-06T23:49:47.610Z,98168.97
2023-02-06T23:51:51.723Z,98170.06
2023-02-06T23:53:55.661Z,98171.38
2023-02-06T23:55:59.536Z,98168.66
2023-02-06T23:58:03.488Z,98158.91
